createdAt,value
2023-03-19T00:02:17.549Z,97271.13
2023-03-19T00:04:47.670Z,97256.44
2023-03-19T00:07:16.781Z,97263.75
2023-03-19T00:09:44.739Z,97267.88
2023-03-19T00:12:13.089Z,97269.41
2023-03-19T00:14:41.615Z,97239.00
2023-03-19T00:17:09.579Z,97258.56
2023-03-19T00:19:37.293Z,97259.38
2023-03-19T00:22:07.716Z,97264.59
2023-03-19T00:24:35.674Z,97264.28
2023-03-19T00:27:03.690Z,97237.47
2023-03-19T00:29:32.191Z,97259.28
2023-03-19T00:31:59.940Z,97247.63
2023-03-19T00:34:28.155Z,97235.63
2023-03-19T00:36:56.580Z,97250.31
2023-03-19T00:39:25.757Z,97258.66
2023-03-19T00:41:53.499Z,97257.53
2023-03-19T00:44:21.674Z,97269.19
2023-03-19T00:46:49.490Z,97264.97
2023-03-19T00:49:17.293Z,97261.06
2023-03-19T00:51:46.259Z,97274.06
2023-03-19T00:54:14.804Z,97271.47
2023-03-19T00:56:44.376Z,97263.47
2023-03-19T00:59:12.093Z,97266.06
2023-03-19T01:01:39.953Z,97260.34
2023-03-19T01:04:08.250Z,97264.03
2023-03-19T01:06:36.039Z,97270.75
2023-03-19T01:09:03.815Z,97268.03
2023-03-19T01:11:32.626Z,97252.81
2023-03-19T01:14:02.649Z,97257.75
2023-03-19T01:16:30.422Z,97259.47
2023-03-19T01:18:58.893Z,97262.69
2023-03-19T01:21:27.330Z,97269.91
2023-03-19T01:23:55.149Z,97255.88
2023-03-19T01:26:23.300Z,97253.56
2023-03-19T01:28:51.125Z,97266.63
2023-03-19T01:31:22.072Z,97266.16
2023-03-19T01:33:50.412Z,97268.19
2023-03-19T01:36:18.176Z,97273.78
2023-03-19T01:38:46.407Z,97266.28
2023-03-19T01:41:14.572Z,97248.56
2023-03-19T01:43:42.954Z,97276.06
2023-03-19T01:46:19.306Z,97277.38
2023-03-19T01:48:51.201Z,97268.94
2023-03-19T01:51:22.236Z,97268.25
2023-03-19T01:53:54.741Z,97255.25
2023-03-19T01:56:25.257Z,97266.66
2023-03-19T01:58:58.935Z,97255.97
2023-03-19T02:01:29.736Z,97273.38
2023-03-19T02:04:00.999Z,97265.88
2023-03-19T02:06:30.675Z,97273.44
2023-03-19T02:08:59.045Z,97267.47
2023-03-19T02:11:28.455Z,97265.34
2023-03-19T02:13:56.298Z,97276.59
2023-03-19T02:16:24.106Z,97285.91
2023-03-19T02:18:53.860Z,97272.31
2023-03-19T02:21:24.166Z,97260.16
2023-03-19T02:24:01.206Z,97266.28
2023-03-19T02:26:31.946Z,97267.28
2023-03-19T02:28:59.735Z,97263.97
2023-03-19T02:31:28.451Z,97265.56
2023-03-19T02:34:01.265Z,97257.97
2023-03-19T02:36:35.105Z,97262.25
2023-03-19T02:39:07.255Z,97270.28
2023-03-19T02:41:40.336Z,97253.03
2023-03-19T02:44:11.764Z,97254.75
2023-03-19T02:46:39.637Z,97267.69
2023-03-19T02:49:07.881Z,97249.06
2023-03-19T02:51:37.475Z,97263.78
2023-03-19T02:54:05.958Z,97238.13
2023-03-19T02:56:34.775Z,97256.28
2023-03-19T02:59:04.478Z,97265.88
2023-03-19T03:01:32.340Z,97263.88
2023-03-19T03:04:00.621Z,97255.66
2023-03-19T03:06:28.678Z,97263.56
2023-03-19T03:08:56.467Z,97261.16
2023-03-19T03:11:24.640Z,97233.13
2023-03-19T03:13:52.391Z,97265.38
2023-03-19T03:16:21.685Z,97271.78
2023-03-19T03:18:50.285Z,97271.38
2023-03-19T03:21:20.119Z,97269.19
2023-03-19T03:23:48.141Z,97271.91
2023-03-19T03:26:16.597Z,97271.09
2023-03-19T03:28:44.768Z,97260.06
2023-03-19T03:31:13.677Z,97256.56
2023-03-19T03:33:43.277Z,97278.84
2023-03-19T03:36:12.344Z,97281.38
2023-03-19T03:38:40.615Z,97277.81
2023-03-19T03:41:08.837Z,97268.56
2023-03-19T03:43:36.581Z,97290.53
2023-03-19T03:46:04.969Z,97299.00
2023-03-19T03:48:33.099Z,97280.03
2023-03-19T03:51:03.199Z,97286.00
2023-03-19T03:53:31.365Z,97303.69
2023-03-19T03:55:59.521Z,97294.53
2023-03-19T03:58:27.957Z,97300.53
2023-03-19T04:00:56.642Z,97277.44
2023-03-19T04:03:24.996Z,97281.50
2023-03-19T04:05:52.972Z,97303.75
2023-03-19T04:08:22.859Z,97310.84
2023-03-19T04:10:51.078Z,97312.94
2023-03-19T04:13:18.906Z,97297.88
2023-03-19T04:15:46.667Z,97294.28
2023-03-19T04:18:15.262Z,97311.59
2023-03-19T04:20:43.625Z,97321.00
2023-03-19T04:23:11.841Z,97309.28
2023-03-19T04:25:42.680Z,97302.22
2023-03-19T04:28:10.707Z,97311.66
2023-03-19T04:30:39.001Z,97322.09
2023-03-19T04:33:07.610Z,97324.63
2023-03-19T04:35:36.379Z,97314.09
2023-03-19T04:38:05.004Z,97333.56
2023-03-19T04:40:33.318Z,97308.53
2023-03-19T04:43:02.809Z,97326.28
2023-03-19T04:45:31.798Z,97311.91
2023-03-19T04:48:00.503Z,97329.88
2023-03-19T04:50:29.257Z,97327.47
2023-03-19T04:52:58.502Z,97312.63
2023-03-19T04:55:26.551Z,97345.78
2023-03-19T04:57:54.645Z,97329.38
2023-03-19T05:00:24.934Z,97337.13
2023-03-19T05:02:52.782Z,97335.22
2023-03-19T05:05:20.747Z,97337.19
2023-03-19T05:07:49.394Z,97339.94
2023-03-19T05:10:17.527Z,97340.22
2023-03-19T05:12:45.528Z,97340.97
2023-03-19T05:15:14.221Z,97333.28
2023-03-19T05:17:44.050Z,97345.72
2023-03-19T05:20:12.966Z,97337.72
2023-03-19T05:22:41.878Z,97338.31
2023-03-19T05:25:10.169Z,97345.25
2023-03-19T05:27:38.095Z,97324.38
2023-03-19T05:30:07.766Z,97314.75
2023-03-19T05:32:35.635Z,97323.22
2023-03-19T05:35:05.658Z,97335.97
2023-03-19T05:37:34.211Z,97356.91
2023-03-19T05:40:02.209Z,97351.97
2023-03-19T05:42:30.159Z,97348.69
2023-03-19T05:45:01.920Z,97357.09
2023-03-19T05:47:29.782Z,97374.75
2023-03-19T05:49:58.294Z,97360.59
2023-03-19T05:52:28.364Z,97376.00
2023-03-19T05:54:56.673Z,97374.47
2023-03-19T05:57:24.925Z,97371.94
2023-03-19T05:59:53.715Z,97375.00
2023-03-19T06:02:22.051Z,97386.59
2023-03-19T06:04:50.538Z,97388.78
2023-03-19T06:07:18.416Z,97389.31
2023-03-19T06:09:47.747Z,97397.88
2023-03-19T06:12:17.041Z,97373.81
2023-03-19T06:14:44.865Z,97406.72
2023-03-19T06:17:12.837Z,97391.34
2023-03-19T06:19:41.165Z,97421.31
2023-03-19T06:22:09.508Z,97421.72
2023-03-19T06:24:37.520Z,97430.59
2023-03-19T06:27:07.711Z,97427.13
2023-03-19T06:29:35.678Z,97430.78
2023-03-19T06:32:04.681Z,97431.16
2023-03-19T06:34:33.019Z,97439.72
2023-03-19T06:37:01.107Z,97453.03
2023-03-19T06:39:29.741Z,97456.84
2023-03-19T06:41:57.668Z,97442.78
2023-03-19T06:44:27.461Z,97454.59
2023-03-19T06:46:56.177Z,97446.00
2023-03-19T06:49:24.076Z,97466.13
2023-03-19T06:51:52.536Z,97433.97
2023-03-19T06:54:20.918Z,97447.19
2023-03-19T06:56:49.105Z,97443.19
2023-03-19T06:59:16.918Z,97450.88
2023-03-19T07:01:47.355Z,97445.66
2023-03-19T07:04:15.468Z,97447.41
2023-03-19T07:06:43.475Z,97461.03
2023-03-19T07:09:12.079Z,97475.25
2023-03-19T07:11:40.157Z,97489.03
2023-03-19T07:14:08.137Z,97498.00
2023-03-19T07:16:36.733Z,97508.56
2023-03-19T07:19:06.045Z,97502.13
2023-03-19T07:21:34.191Z,97513.66
2023-03-19T07:24:02.543Z,97521.34
2023-03-19T07:26:30.648Z,97522.56
2023-03-19T07:28:58.605Z,97505.75
2023-03-19T07:31:27.140Z,97496.69
2023-03-19T07:33:55.047Z,97490.44
2023-03-19T07:36:24.945Z,97522.28
2023-03-19T07:38:53.010Z,97529.75
2023-03-19T07:41:21.417Z,97529.34
2023-03-19T07:43:49.792Z,97541.31
2023-03-19T07:46:18.152Z,97549.66
2023-03-19T07:48:47.084Z,97548.50
2023-03-19T07:51:15.029Z,97545.63
2023-03-19T07:53:44.759Z,97549.00
2023-03-19T07:56:13.820Z,97551.03
2023-03-19T07:58:42.327Z,97535.97
2023-03-19T08:01:10.230Z,97525.91
2023-03-19T08:03:39.076Z,97509.38
2023-03-19T08:06:07.271Z,97530.56
2023-03-19T08:08:36.396Z,97548.72
2023-03-19T08:11:06.978Z,97535.84
2023-03-19T08:13:34.860Z,97536.78
2023-03-19T08:16:03.627Z,97548.09
2023-03-19T08:18:31.597Z,97563.69
2023-03-19T08:20:59.508Z,97579.84
2023-03-19T08:23:28.560Z,97561.75
2023-03-19T08:25:57.122Z,97589.91
2023-03-19T08:28:26.460Z,97582.91
2023-03-19T08:30:56.299Z,97608.00
2023-03-19T08:33:24.850Z,97593.88
2023-03-19T08:35:53.413Z,97592.06
2023-03-19T08:38:21.892Z,97619.69
2023-03-19T08:40:49.901Z,97629.88
2023-03-19T08:43:17.785Z,97630.53
2023-03-19T08:45:47.538Z,97626.25
2023-03-19T08:48:15.412Z,97613.38
2023-03-19T08:50:43.356Z,97628.78
2023-03-19T08:53:11.688Z,97630.75
2023-03-19T08:55:40.319Z,97636.78
2023-03-19T08:58:08.262Z,97637.91
2023-03-19T09:00:37.091Z,97634.31
2023-03-19T09:03:06.922Z,97628.94
2023-03-19T09:05:35.009Z,97624.22
2023-03-19T09:08:03.867Z,97639.97
2023-03-19T09:10:31.909Z,97647.75
2023-03-19T09:12:59.985Z,97640.31
2023-03-19T09:15:28.550Z,97645.47
2023-03-19T09:17:56.884Z,97652.69
2023-03-19T09:20:26.400Z,97653.09
2023-03-19T09:22:55.034Z,97655.84
2023-03-19T09:25:23.344Z,97649.66
2023-03-19T09:27:51.645Z,97656.38
2023-03-19T09:30:20.127Z,97607.88
2023-03-19T09:32:48.107Z,97571.78
2023-03-19T09:35:16.208Z,97560.53
2023-03-19T09:37:46.023Z,97555.78
2023-03-19T09:40:22.998Z,97559.59
2023-03-19T09:43:02.250Z,97568.22
2023-03-19T09:45:30.897Z,97562.78
2023-03-19T09:48:07.286Z,97570.13
2023-03-19T09:50:36.532Z,97571.56
2023-03-19T09:53:14.427Z,97550.34
2023-03-19T09:55:45.645Z,97578.63
2023-03-19T09:58:17.506Z,97572.75
2023-03-19T10:00:49.106Z,97561.69
2023-03-19T10:03:32.632Z,97562.84
2023-03-19T10:06:15.221Z,97556.84
2023-03-19T10:08:58.724Z,97566.88
2023-03-19T10:11:39.723Z,97578.13
2023-03-19T10:14:23.839Z,97571.47
2023-03-19T10:16:55.610Z,97575.06
2023-03-19T10:19:31.194Z,97565.94
2023-03-19T10:22:03.688Z,97573.75
2023-03-19T10:24:37.242Z,97578.34
2023-03-19T10:27:14.150Z,97575.13
2023-03-19T10:29:43.000Z,97576.00
2023-03-19T10:32:19.588Z,97570.03
2023-03-19T10:34:50.881Z,97568.41
2023-03-19T10:37:21.594Z,97567.41
2023-03-19T10:39:53.644Z,97569.81
2023-03-19T10:42:48.721Z,97574.03
2023-03-19T10:45:26.705Z,97573.22
2023-03-19T10:47:56.177Z,97574.47
2023-03-19T10:50:31.921Z,97569.34
2023-03-19T10:53:07.741Z,97576.53
2023-03-19T10:55:37.698Z,97574.94
2023-03-19T10:58:18.510Z,97570.16
2023-03-19T11:00:48.520Z,97555.44
2023-03-19T11:03:32.099Z,97569.00
2023-03-19T11:06:17.666Z,97581.88
2023-03-19T11:08:53.549Z,97574.25
2023-03-19T11:11:28.013Z,97568.59
2023-03-19T11:13:56.112Z,97580.69
2023-03-19T11:16:24.603Z,97578.13
2023-03-19T11:18:53.252Z,97577.72
2023-03-19T11:21:29.166Z,97573.81
2023-03-19T11:24:03.389Z,97569.13
2023-03-19T11:26:32.929Z,97578.06
2023-03-19T11:29:05.664Z,97574.16
2023-03-19T11:31:40.685Z,97570.88
2023-03-19T11:34:21.464Z,97569.94
2023-03-19T11:36:58.215Z,97563.19
2023-03-19T11:39:34.479Z,97558.94
2023-03-19T11:42:28.096Z,97558.84
2023-03-19T11:45:10.809Z,97547.09
2023-03-19T11:47:47.892Z,97556.91
2023-03-19T11:50:23.177Z,97557.56
2023-03-19T11:53:05.720Z,97549.38
2023-03-19T11:55:42.719Z,97541.97
2023-03-19T11:58:45.793Z,97546.19
2023-03-19T12:01:26.963Z,97548.91
2023-03-19T12:04:21.907Z,97547.88
2023-03-19T12:07:01.392Z,97535.91
2023-03-19T12:09:35.607Z,97541.19
2023-03-19T12:12:15.074Z,97518.03
2023-03-19T12:14:56.169Z,97535.09
2023-03-19T12:17:38.476Z,97524.44
2023-03-19T12:20:23.418Z,97516.75
2023-03-19T12:23:07.022Z,97507.34
2023-03-19T12:25:46.797Z,97515.97
2023-03-19T12:28:24.985Z,97511.31
2023-03-19T12:31:15.518Z,97511.84
2023-03-19T12:33:48.828Z,97501.31
2023-03-19T12:36:22.353Z,97497.41
2023-03-19T12:38:55.450Z,97493.50
2023-03-19T12:41:26.132Z,97488.00
2023-03-19T12:44:00.122Z,97482.69
2023-03-19T12:46:34.719Z,97487.91
2023-03-19T12:49:08.338Z,97468.09
2023-03-19T12:51:40.629Z,97473.50
2023-03-19T12:54:15.031Z,97472.34
2023-03-19T12:56:50.536Z,97460.34
2023-03-19T12:59:26.792Z,97455.28
2023-03-19T13:02:02.860Z,97458.06
2023-03-19T13:04:34.887Z,97450.72
2023-03-19T13:07:07.302Z,97447.16
2023-03-19T13:09:41.156Z,97448.84
2023-03-19T13:12:14.250Z,97445.47
2023-03-19T13:14:51.730Z,97447.66
2023-03-19T13:17:28.898Z,97448.59
2023-03-19T13:19:58.104Z,97472.22
2023-03-19T13:22:29.613Z,97456.34
2023-03-19T13:25:00.165Z,97449.19
2023-03-19T13:27:32.730Z,97450.75
2023-03-19T13:30:07.986Z,97452.97
2023-03-19T13:32:42.622Z,97456.56
2023-03-19T13:35:24.486Z,97439.31
2023-03-19T13:37:58.633Z,97458.31
2023-03-19T13:40:46.195Z,97440.16
2023-03-19T13:43:40.953Z,97454.41
2023-03-19T13:46:41.226Z,97444.31
2023-03-19T13:49:35.807Z,97455.50
2023-03-19T13:52:50.974Z,97445.13
2023-03-19T13:55:32.904Z,97430.81
2023-03-19T13:58:18.286Z,97427.09
2023-03-19T14:01:01.351Z,97427.97
2023-03-19T14:03:32.721Z,97420.56
2023-03-19T14:06:01.846Z,97422.78
2023-03-19T14:08:35.863Z,97421.47
2023-03-19T14:11:05.886Z,97428.16
2023-03-19T14:13:40.026Z,97418.84
2023-03-19T14:16:16.105Z,97415.91
2023-03-19T14:18:45.783Z,97406.59
2023-03-19T14:21:21.415Z,97390.72
2023-03-19T14:23:57.871Z,97391.81
2023-03-19T14:26:29.427Z,97400.91
2023-03-19T14:29:03.002Z,97386.81
2023-03-19T14:31:43.728Z,97395.31
2023-03-19T14:34:22.401Z,97390.09
2023-03-19T14:36:57.322Z,97402.00
2023-03-19T14:39:29.921Z,97394.41
2023-03-19T14:42:04.170Z,97397.53
2023-03-19T14:45:17.392Z,97379.13
2023-03-19T14:48:02.113Z,97370.09
2023-03-19T14:51:05.845Z,97394.00
2023-03-19T14:53:42.279Z,97390.53
2023-03-19T14:56:16.500Z,97388.97
2023-03-19T14:58:52.686Z,97396.78
2023-03-19T15:01:23.112Z,97388.88
2023-03-19T15:03:56.153Z,97391.19
2023-03-19T15:06:25.052Z,97397.13
2023-03-19T15:08:53.520Z,97392.78
2023-03-19T15:11:48.513Z,97399.22
2023-03-19T15:14:43.707Z,97393.50
2023-03-19T15:17:20.178Z,97404.47
2023-03-19T15:19:48.559Z,97385.84
2023-03-19T15:22:21.984Z,97381.13
2023-03-19T15:24:50.856Z,97381.13
2023-03-19T15:27:23.554Z,97382.75
2023-03-19T15:29:53.550Z,97387.16
2023-03-19T15:33:04.375Z,97395.78
2023-03-19T15:35:28.660Z,97393.47
2023-03-19T15:38:01.878Z,97393.31
2023-03-19T15:40:32.815Z,97385.19
2023-03-19T15:43:04.208Z,97383.09
2023-03-19T15:45:35.013Z,97383.16
2023-03-19T15:48:08.042Z,97384.84
2023-03-19T15:50:42.944Z,97382.03
2023-03-19T15:53:16.895Z,97378.19
2023-03-19T15:55:45.256Z,97383.25
2023-03-19T15:58:19.496Z,97384.44
2023-03-19T16:00:47.738Z,97382.06
2023-03-19T16:03:20.468Z,97388.31
2023-03-19T16:05:59.903Z,97401.97
2023-03-19T16:08:29.505Z,97399.00
2023-03-19T16:11:13.950Z,97381.09
2023-03-19T16:13:54.675Z,97389.56
2023-03-19T16:16:24.975Z,97391.72
2023-03-19T16:18:56.082Z,97390.59
2023-03-19T16:21:29.729Z,97383.16
2023-03-19T16:24:01.768Z,97395.94
2023-03-19T16:26:37.469Z,97398.84
2023-03-19T16:29:18.488Z,97392.91
2023-03-19T16:31:51.826Z,97403.03
2023-03-19T16:34:32.573Z,97401.53
2023-03-19T16:37:01.535Z,97409.78
2023-03-19T16:39:35.445Z,97402.47
2023-03-19T16:42:28.160Z,97403.78
2023-03-19T16:44:58.825Z,97406.53
2023-03-19T16:47:27.253Z,97414.72
2023-03-19T16:49:55.657Z,97414.19
2023-03-19T16:52:25.599Z,97409.59
2023-03-19T16:54:55.753Z,97410.47
2023-03-19T16:57:24.022Z,97393.03
2023-03-19T16:59:53.124Z,97416.09
2023-03-19T17:02:23.152Z,97423.59
2023-03-19T17:04:51.360Z,97432.56
2023-03-19T17:07:19.715Z,97433.91
2023-03-19T17:09:48.471Z,97434.97
2023-03-19T17:12:18.621Z,97434.66
2023-03-19T17:14:49.262Z,97434.19
2023-03-19T17:17:20.292Z,97440.38
2023-03-19T17:19:51.918Z,97457.69
